Alges — CSPH — position and weather

sailwx.info

Track history (hours):
 
Tides and Currents Weather Stations Pressure Air Temp Water Temp Dewpoint Dewpoint Depression Visibility Wind Speed Wind Dir Waves Ship Positions

Alges

Last reported at 2014-Oct-02 15:34 UTC. Time now 2014-Oct-02 16:30 UTC.
Position N 38°42' W 009°07'.

Length 45 m; draft 24.8 m.

Type: Passenger vessel. MMSI: 263700008.

Date/timePositionNaut miles runAvg speedWind from/ knotsBaromVisibWave heightAir tempDewpointWater temp
2014-Oct-02 15:34N 38°42' W 009°07'0 0.2
2014-Oct-02 14:33N 38°42' W 009°07'5 5.3
2014-Oct-02 13:33N 38°42' W 009°00'0 0.2
2014-Oct-02 12:34N 38°42' W 009°01'5 5.3
2014-Oct-02 11:33N 38°42' W 009°07'5 5.4
2014-Oct-02 10:33N 38°42' W 009°00'0 0.2
2014-Oct-02 09:33N 38°42' W 009°01'0 0.0
2014-Oct-02 08:33N 38°42' W 009°01'0 0.2
2014-Oct-02 07:33N 38°42' W 009°00'0 0.0
2014-Oct-02 06:33N 38°42' W 009°00'0 0.0
2014-Oct-01 19:10N 38°42' W 009°00'6 9.7
2014-Oct-01 18:33N 38°42' W 009°08'0 0.2
2014-Oct-01 17:34N 38°42' W 009°08'0 0.2
2014-Oct-01 16:33N 38°42' W 009°08'0 0.2
2014-Oct-01 15:33N 38°42' W 009°08'0 0.2
2014-Oct-01 14:33N 38°42' W 009°08'6 5.8
2014-Oct-01 13:33N 38°42' W 009°00'0 0.2
2014-Oct-01 12:33N 38°42' W 009°01'5 5.4
2014-Oct-01 11:34N 38°42' W 009°08'6 5.6
2014-Oct-01 10:34N 38°42' W 009°00'0 0.0
2014-Oct-01 09:33N 38°42' W 009°00'0 0.4
2014-Oct-01 08:34N 38°42' W 009°01'0 0.4
2014-Oct-01 07:33N 38°42' W 009°00'0 0.1
2014-Oct-01 06:34N 38°42' W 009°01'0 0.0
2014-Sep-30 19:33N 38°42' W 009°00'7 1.7
2014-Sep-30 15:32N 38°41' W 009°09'0 0.0
2014-Sep-30 14:33N 38°41' W 009°09'0 0.0
2014-Sep-30 08:18N 38°41' W 009°09'1 1.7
2014-Sep-30 07:33N 38°42' W 009°09'2 2.3
2014-Sep-30 06:34N 38°40' W 009°07'2 1.9
2014-Sep-30 05:34N 38°39' W 009°06'0 0.0
2014-Sep-30 04:34N 38°39' W 009°06'0 0.0
2014-Sep-29 19:28N 38°39' W 009°06'4 4.4
2014-Sep-29 18:33N 38°42' W 009°09'0 0.2
2014-Sep-29 17:33N 38°42' W 009°09'3 3.5
2014-Sep-29 16:33N 38°39' W 009°06'1 0.7
2014-Sep-29 15:33N 38°39' W 009°06'0 0.0
2014-Sep-29 12:29N 38°39' W 009°06'0 0.0
2014-Sep-29 11:33N 38°39' W 009°06'0 0.0
2014-Sep-29 10:33N 38°39' W 009°06'2 2.2
2014-Sep-29 09:33N 38°40' W 009°08'2 2.0
2014-Sep-29 08:34N 38°42' W 009°09'4 4.0
2014-Sep-29 07:33N 38°39' W 009°06'2 2.0
2014-Sep-29 06:34N 38°40' W 009°08'2 2.1
2014-Sep-29 05:33N 38°42' W 009°09'  
2014-Sep-26 15:34N 38°41' W 009°09'0 0.0
2014-Sep-26 14:34N 38°41' W 009°09'0 0.0
2014-Sep-26 10:30N 38°41' W 009°09'0 0.0
2014-Sep-26 09:34N 38°41' W 009°09'0 0.0
2014-Sep-26 08:33N 38°41' W 009°09'0 0.0
2014-Sep-26 07:33N 38°41' W 009°09'0 0.0
2014-Sep-26 06:33N 38°41' W 009°09'0 0.0
2014-Sep-25 09:34N 38°41' W 009°09'1 1.3
2014-Sep-25 08:34N 38°42' W 009°09'4 3.7
2014-Sep-25 07:34N 38°39' W 009°06'2 2.1
2014-Sep-25 06:33N 38°41' W 009°08'2 1.7
2014-Sep-25 05:33N 38°42' W 009°09'4 4.1
2014-Sep-25 04:33N 38°39' W 009°06'0 0.0
2014-Sep-24 22:34N 38°39' W 009°06'0 0.4
2014-Sep-24 21:34N 38°39' W 009°06'0 0.2
2014-Sep-24 20:33N 38°39' W 009°06'0 0.2
2014-Sep-24 19:34N 38°39' W 009°06'3 3.3
2014-Sep-24 18:33N 38°42' W 009°08'0 0.5
2014-Sep-24 17:33N 38°42' W 009°09'4 4.1
2014-Sep-24 16:34N 38°39' W 009°06'0 0.0
2014-Sep-24 07:33N 38°39' W 009°06'2 1.5
2014-Sep-24 06:34N 38°40' W 009°07'1 1.5
2014-Sep-24 05:33N 38°41' W 009°09'  
Track history (hours):
 
Tides and Currents Weather Stations Pressure Air Temp Water Temp Dewpoint Dewpoint Depression Visibility Wind Speed Wind Dir Waves Ship Positions

Alges

Last reported at 2014-Oct-02 15:34 UTC. Time now 2014-Oct-02 16:30 UTC.
Position N 38°42' W 009°07'.

Length 45 m; draft 24.8 m.

Type: Passenger vessel. MMSI: 263700008.

Date/timePositionNaut miles runAvg speedWind from/ knotsBaromVisibWave heightAir tempDewpointWater temp
2014-Oct-02 15:34N 38°42' W 009°07'0 0.2
2014-Oct-02 14:33N 38°42' W 009°07'5 5.3
2014-Oct-02 13:33N 38°42' W 009°00'0 0.2
2014-Oct-02 12:34N 38°42' W 009°01'5 5.3
2014-Oct-02 11:33N 38°42' W 009°07'5 5.4
2014-Oct-02 10:33N 38°42' W 009°00'0 0.2
2014-Oct-02 09:33N 38°42' W 009°01'0 0.0
2014-Oct-02 08:33N 38°42' W 009°01'0 0.2
2014-Oct-02 07:33N 38°42' W 009°00'0 0.0
2014-Oct-02 06:33N 38°42' W 009°00'0 0.0
2014-Oct-01 19:10N 38°42' W 009°00'6 9.7
2014-Oct-01 18:33N 38°42' W 009°08'0 0.2
2014-Oct-01 17:34N 38°42' W 009°08'0 0.2
2014-Oct-01 16:33N 38°42' W 009°08'0 0.2
2014-Oct-01 15:33N 38°42' W 009°08'0 0.2
2014-Oct-01 14:33N 38°42' W 009°08'6 5.8
2014-Oct-01 13:33N 38°42' W 009°00'0 0.2
2014-Oct-01 12:33N 38°42' W 009°01'5 5.4
2014-Oct-01 11:34N 38°42' W 009°08'6 5.6
2014-Oct-01 10:34N 38°42' W 009°00'0 0.0
2014-Oct-01 09:33N 38°42' W 009°00'0 0.4
2014-Oct-01 08:34N 38°42' W 009°01'0 0.4
2014-Oct-01 07:33N 38°42' W 009°00'0 0.1
2014-Oct-01 06:34N 38°42' W 009°01'0 0.0
2014-Sep-30 19:33N 38°42' W 009°00'7 1.7
2014-Sep-30 15:32N 38°41' W 009°09'0 0.0
2014-Sep-30 14:33N 38°41' W 009°09'0 0.0
2014-Sep-30 08:18N 38°41' W 009°09'1 1.7
2014-Sep-30 07:33N 38°42' W 009°09'2 2.3
2014-Sep-30 06:34N 38°40' W 009°07'2 1.9
2014-Sep-30 05:34N 38°39' W 009°06'0 0.0
2014-Sep-30 04:34N 38°39' W 009°06'0 0.0
2014-Sep-29 19:28N 38°39' W 009°06'4 4.4
2014-Sep-29 18:33N 38°42' W 009°09'0 0.2
2014-Sep-29 17:33N 38°42' W 009°09'3 3.5
2014-Sep-29 16:33N 38°39' W 009°06'1 0.7
2014-Sep-29 15:33N 38°39' W 009°06'0 0.0
2014-Sep-29 12:29N 38°39' W 009°06'0 0.0
2014-Sep-29 11:33N 38°39' W 009°06'0 0.0
2014-Sep-29 10:33N 38°39' W 009°06'2 2.2
2014-Sep-29 09:33N 38°40' W 009°08'2 2.0
2014-Sep-29 08:34N 38°42' W 009°09'4 4.0
2014-Sep-29 07:33N 38°39' W 009°06'2 2.0
2014-Sep-29 06:34N 38°40' W 009°08'2 2.1
2014-Sep-29 05:33N 38°42' W 009°09'  
2014-Sep-26 15:34N 38°41' W 009°09'0 0.0
2014-Sep-26 14:34N 38°41' W 009°09'0 0.0
2014-Sep-26 10:30N 38°41' W 009°09'0 0.0
2014-Sep-26 09:34N 38°41' W 009°09'0 0.0
2014-Sep-26 08:33N 38°41' W 009°09'0 0.0
2014-Sep-26 07:33N 38°41' W 009°09'0 0.0
2014-Sep-26 06:33N 38°41' W 009°09'0 0.0
2014-Sep-25 09:34N 38°41' W 009°09'1 1.3
2014-Sep-25 08:34N 38°42' W 009°09'4 3.7
2014-Sep-25 07:34N 38°39' W 009°06'2 2.1
2014-Sep-25 06:33N 38°41' W 009°08'2 1.7
2014-Sep-25 05:33N 38°42' W 009°09'4 4.1
2014-Sep-25 04:33N 38°39' W 009°06'0 0.0
2014-Sep-24 22:34N 38°39' W 009°06'0 0.4
2014-Sep-24 21:34N 38°39' W 009°06'0 0.2
2014-Sep-24 20:33N 38°39' W 009°06'0 0.2
2014-Sep-24 19:34N 38°39' W 009°06'3 3.3
2014-Sep-24 18:33N 38°42' W 009°08'0 0.5
2014-Sep-24 17:33N 38°42' W 009°09'4 4.1
2014-Sep-24 16:34N 38°39' W 009°06'0 0.0
2014-Sep-24 07:33N 38°39' W 009°06'2 1.5
2014-Sep-24 06:34N 38°40' W 009°07'1 1.5
2014-Sep-24 05:33N 38°41' W 009°09'  

Dump ship's entire track history